Time;durP1;ratioP1;P1;durP2;ratioP2;P2;SDS_P1;SDS_P2;PMS_P1;PMS_P2;Temp;Humidity;BMP_temperature;BMP_pressure;BME280_temperature;BME280_humidity;BME280_pressure;Samples;Min_cycle;Max_cycle;Signal;HPM_P1;HPM_P2
2022/06/20 00:00:58;;;;;;;10.95;5.60;;;;;;;21.55;89.83;98154.53;5115685;28;20543;-80
2022/06/20 00:03:27;;;;;;;12.65;5.35;;;;;;;21.67;89.72;98165.28;5115923;27;20047;-80
2022/06/20 00:05:55;;;;;;;13.48;5.40;;;;;;;21.60;89.65;98162.81;5115589;28;20047;-80
2022/06/20 00:08:22;;;;;;;8.50;5.95;;;;;;;21.61;90.37;98166.44;5115933;28;20125;-80
2022/06/20 00:10:50;;;;;;;10.40;5.80;;;;;;;21.53;91.02;98156.78;5115805;28;20487;-80
2022/06/20 00:13:21;;;;;;;9.55;6.25;;;;;;;21.56;90.55;98162.56;5114396;27;20044;-79
2022/06/20 00:15:50;;;;;;;10.73;5.63;;;;;;;21.51;90.22;98164.50;5115349;28;20043;-79
2022/06/20 00:18:17;;;;;;;13.52;6.13;;;;;;;21.39;90.85;98151.81;5115628;28;20054;-80
2022/06/20 00:20:44;;;;;;;12.55;5.82;;;;;;;21.42;92.26;98163.41;5115760;28;20150;-80
2022/06/20 00:23:12;;;;;;;15.77;6.22;;;;;;;21.38;91.54;98147.38;5115378;28;20063;-80
2022/06/20 00:25:39;;;;;;;12.55;6.30;;;;;;;21.34;93.93;98150.97;5115047;28;20096;-80
2022/06/20 00:28:06;;;;;;;15.95;7.35;;;;;;;21.31;94.92;98146.84;5115464;28;20060;-80
2022/06/20 00:30:33;;;;;;;10.25;6.22;;;;;;;21.31;95.07;98146.00;5115467;28;20051;-80
2022/06/20 00:32:59;;;;;;;13.05;6.15;;;;;;;21.28;96.32;98144.63;5115330;28;20050;-80
2022/06/20 00:35:26;;;;;;;18.05;7.70;;;;;;;21.24;98.17;98142.72;5115313;28;20546;-80
2022/06/20 00:37:56;;;;;;;15.88;6.88;;;;;;;21.34;98.04;98142.69;5114236;28;20155;-80
2022/06/20 00:40:28;;;;;;;15.38;6.10;;;;;;;21.32;98.15;98140.22;5114550;28;20047;-80
2022/06/20 00:42:55;;;;;;;16.40;7.25;;;;;;;21.07;99.33;98138.31;5112943;27;20408;-80
2022/06/20 00:45:24;;;;;;;12.38;6.07;;;;;;;21.17;96.89;98134.72;5115260;28;20047;-80
2022/06/20 00:47:53;;;;;;;11.07;6.32;;;;;;;21.07;97.54;98126.44;5115293;28;20075;-79
2022/06/20 00:50:23;;;;;;;14.80;5.82;;;;;;;21.21;96.89;98153.22;5115185;28;20052;-80
2022/06/20 00:52:56;;;;;;;13.70;6.13;;;;;;;21.16;95.84;98146.88;5114673;27;20047;-79
2022/06/20 00:55:28;;;;;;;10.65;5.70;;;;;;;21.04;95.55;98141.63;5115223;28;20047;-80
2022/06/20 00:57:59;;;;;;;16.92;6.40;;;;;;;21.06;95.50;98147.69;5115519;28;20063;-80
2022/06/20 01:00:29;;;;;;;12.23;5.90;;;;;;;20.99;96.29;98159.06;5114845;28;20055;-80
2022/06/20 01:03:02;;;;;;;12.33;5.40;;;;;;;20.91;96.67;98150.50;5114821;28;20047;-79
2022/06/20 01:05:35;;;;;;;8.57;5.95;;;;;;;20.78;99.30;98174.81;5113274;28;20047;-80
2022/06/20 01:08:06;;;;;;;22.17;6.20;;;;;;;20.93;97.95;98184.22;5114574;28;20411;-80
2022/06/20 01:10:41;;;;;;;16.77;6.85;;;;;;;21.10;99.34;98192.19;5114917;28;20051;-80
2022/06/20 01:13:14;;;;;;;15.85;6.95;;;;;;;20.95;100.00;98201.31;5114338;28;20043;-80
2022/06/20 01:15:43;;;;;;;16.92;6.85;;;;;;;20.87;100.00;98199.94;5114382;28;20055;-80
2022/06/20 01:18:16;;;;;;;13.50;7.03;;;;;;;20.69;100.00;98177.28;5114459;28;20055;-80
2022/06/20 01:20:44;;;;;;;11.20;6.13;;;;;;;20.64;100.00;98190.22;5114209;28;20125;-80
2022/06/20 01:23:25;;;;;;;14.07;8.25;;;;;;;20.63;100.00;98172.81;5114589;28;20048;-80
2022/06/20 01:26:11;;;;;;;14.95;7.15;;;;;;;20.65;100.00;98167.03;5114498;28;20503;-82
2022/06/20 01:28:43;;;;;;;19.92;8.30;;;;;;;20.59;100.00;98160.66;5113903;27;20048;-81
2022/06/20 01:31:11;;;;;;;13.60;7.68;;;;;;;20.32;100.00;98159.00;5114136;27;20059;-81
2022/06/20 01:33:38;;;;;;;21.42;8.32;;;;;;;20.58;100.00;98153.50;5113958;28;20052;-81
2022/06/20 01:38:50;;;;;;;19.02;8.52;;;;;;;20.54;100.00;98148.81;5114226;28;20058;-80
2022/06/20 01:44:18;;;;;;;17.85;7.68;;;;;;;20.64;100.00;98146.03;5050814;28;20048;-80
2022/06/20 01:46:45;;;;;;;17.23;8.33;;;;;;;20.55;100.00;98143.00;5049829;28;20477;-80
2022/06/20 01:49:14;;;;;;;16.77;9.07;;;;;;;20.40;100.00;98143.81;5078811;28;20059;-80
2022/06/20 01:51:46;;;;;;;22.52;8.02;;;;;;;20.32;100.00;98136.06;5112990;28;20043;-80
2022/06/20 01:54:15;;;;;;;19.20;7.57;;;;;;;20.46;100.00;98156.53;5113402;28;20051;-80
2022/06/20 01:56:43;;;;;;;15.30;8.00;;;;;;;20.22;100.00;98138.81;5114064;28;20047;-80
2022/06/20 01:59:12;;;;;;;12.63;7.85;;;;;;;19.88;100.00;98150.31;5114125;28;20052;-81
2022/06/20 02:01:41;;;;;;;16.92;7.88;;;;;;;20.15;100.00;98150.94;5113906;28;20051;-81
2022/06/20 02:04:13;;;;;;;16.83;8.23;;;;;;;20.17;100.00;98158.94;5113611;28;20055;-80
2022/06/20 02:06:40;;;;;;;18.20;8.15;;;;;;;20.13;100.00;98164.19;5111589;28;20046;-80
2022/06/20 02:09:09;;;;;;;13.63;7.70;;;;;;;20.18;100.00;98171.66;5113300;28;20051;-80
2022/06/20 02:11:39;;;;;;;18.75;7.97;;;;;;;20.02;100.00;98165.25;5113675;28;20055;-81
2022/06/20 02:14:09;;;;;;;13.98;7.72;;;;;;;19.75;100.00;98135.91;5112968;28;20052;-80
2022/06/20 02:16:39;;;;;;;13.93;8.27;;;;;;;19.83;100.00;98156.66;5113555;28;20051;-80
2022/06/20 02:19:09;;;;;;;;;;;;;;;19.73;100.00;98165.66;5114225;28;20697;-80
2022/06/20 02:21:37;;;;;;;15.45;7.63;;;;;;;19.95;100.00;98168.28;5112353;28;19919;-80
2022/06/20 02:24:08;;;;;;;14.32;8.35;;;;;;;20.10;100.00;98159.22;5113442;28;20047;-81
2022/06/20 02:26:38;;;;;;;15.52;7.85;;;;;;;20.07;100.00;98165.28;5113934;28;20039;-80
2022/06/20 02:29:06;;;;;;;;;;;;;;;20.01;100.00;98160.00;5114177;28;20415;-80
2022/06/20 02:31:33;;;;;;;14.82;7.53;;;;;;;19.83;100.00;98133.75;5113715;28;19927;-80
2022/06/20 02:34:01;;;;;;;15.30;9.23;;;;;;;19.72;100.00;98141.13;5113168;28;20046;-80
2022/06/20 02:36:31;;;;;;;17.80;7.78;;;;;;;19.76;100.00;98123.75;5112502;28;20058;-80
2022/06/20 02:38:58;;;;;;;13.57;7.20;;;;;;;19.81;100.00;98120.22;5113536;28;20111;-80
2022/06/20 02:41:29;;;;;;;17.13;8.57;;;;;;;19.76;100.00;98121.00;5113669;28;20050;-80
2022/06/20 02:44:00;;;;;;;18.85;9.40;;;;;;;19.82;100.00;98132.09;5113174;28;20052;-80
2022/06/20 02:46:30;;;;;;;19.25;8.57;;;;;;;19.76;100.00;98107.22;5113518;28;20483;-80
2022/06/20 02:48:58;;;;;;;13.60;8.00;;;;;;;19.95;100.00;98129.66;5113627;28;20085;-80
2022/06/20 02:51:29;;;;;;;28.85;9.20;;;;;;;19.68;100.00;98121.53;5113036;28;20047;-80
2022/06/20 02:53:59;;;;;;;18.45;8.98;;;;;;;19.74;100.00;98134.25;5112965;28;20047;-80
2022/06/20 02:56:29;;;;;;;19.55;8.50;;;;;;;19.79;100.00;98125.19;5111883;28;20047;-80
2022/06/20 02:59:00;;;;;;;14.57;8.40;;;;;;;19.69;100.00;98138.91;5113276;28;20051;-80
2022/06/20 03:01:35;;;;;;;15.75;9.23;;;;;;;19.71;100.00;98150.50;5115160;28;20043;-80
2022/06/20 03:04:02;;;;;;;13.13;7.68;;;;;;;19.64;100.00;98150.75;5115450;27;20046;-80
2022/06/20 03:06:33;;;;;;;18.33;8.48;;;;;;;19.78;100.00;98159.38;5117146;28;20387;-81
2022/06/20 03:09:02;;;;;;;18.65;8.10;;;;;;;19.84;100.00;98182.28;5117266;28;20051;-80
2022/06/20 03:11:31;;;;;;;20.83;7.78;;;;;;;19.88;100.00;98189.75;5117142;28;20047;-81
2022/06/20 03:13:59;;;;;;;16.30;8.77;;;;;;;19.83;100.00;98202.69;5115777;28;20050;-80
2022/06/20 03:16:27;;;;;;;15.55;8.80;;;;;;;19.76;100.00;98236.81;5116008;28;20074;-81
2022/06/20 03:18:59;;;;;;;14.63;8.52;;;;;;;19.91;100.00;98254.59;5114347;27;20059;-80
2022/06/20 03:21:33;;;;;;;18.50;9.05;;;;;;;19.79;100.00;98239.06;5095795;28;20059;-80
2022/06/20 03:24:03;;;;;;;17.52;8.77;;;;;;;19.79;100.00;98260.31;5095173;28;20063;-81
2022/06/20 03:26:30;;;;;;;;;;;;;;;19.84;100.00;98240.19;5095992;28;20055;-81
2022/06/20 03:28:58;;;;;;;20.27;8.23;;;;;;;19.77;100.00;98273.50;5095487;28;20003;-81
2022/06/20 03:31:25;;;;;;;21.92;8.77;;;;;;;19.78;100.00;98278.78;5095485;28;20059;-81
2022/06/20 03:33:51;;;;;;;19.65;8.68;;;;;;;19.86;100.00;98271.09;5113926;28;20052;-81
2022/06/20 03:36:22;;;;;;;14.90;9.70;;;;;;;19.95;100.00;98294.34;5116294;28;20071;-81
2022/06/20 03:38:50;;;;;;;13.85;9.13;;;;;;;19.90;100.00;98272.22;5116626;28;20490;-80
2022/06/20 03:41:23;;;;;;;19.13;8.88;;;;;;;19.94;100.00;98289.91;5116299;28;20047;-81
2022/06/20 03:43:53;;;;;;;20.10;8.85;;;;;;;19.97;100.00;98281.09;5116066;28;20044;-80
2022/06/20 03:46:25;;;;;;;21.05;9.77;;;;;;;19.98;100.00;98300.13;5114866;27;20052;-81
2022/06/20 03:49:00;;;;;;;12.50;8.50;;;;;;;20.03;100.00;98287.47;5116331;28;20051;-81
2022/06/20 03:51:33;;;;;;;16.77;7.93;;;;;;;20.21;100.00;98289.75;5116091;28;20498;-81
2022/06/20 03:54:06;;;;;;;16.02;7.82;;;;;;;20.19;100.00;98305.78;5115642;28;20085;-81
2022/06/20 03:56:42;;;;;;;18.42;8.23;;;;;;;20.25;100.00;98324.00;5116165;28;20660;-81
2022/06/20 03:59:15;;;;;;;19.63;8.30;;;;;;;20.32;100.00;98323.75;5115882;28;20050;-81
2022/06/20 04:01:46;;;;;;;15.20;8.23;;;;;;;20.17;100.00;98316.22;5114802;28;20076;-81
2022/06/20 04:04:21;;;;;;;16.75;7.20;;;;;;;20.18;100.00;98314.31;5115587;28;20555;-81
2022/06/20 04:06:54;;;;;;;14.95;7.47;;;;;;;20.39;100.00;98323.50;5116023;28;20047;-80
2022/06/20 04:12:20;;;;;;;16.00;7.07;;;;;;;20.16;100.00;98296.09;5115443;28;20169;-81
2022/06/20 04:14:52;;;;;;;17.95;7.65;;;;;;;20.31;100.00;98300.03;5114923;27;20054;-80
2022/06/20 04:20:16;;;;;;;20.70;7.57;;;;;;;20.36;100.00;98338.69;5115741;28;20070;-80
2022/06/20 04:22:45;;;;;;;12.65;7.28;;;;;;;20.45;100.00;98347.28;5115321;28;20051;-80
2022/06/20 04:25:21;;;;;;;9.80;6.13;;;;;;;20.32;100.00;98324.59;5115482;28;20052;-80
2022/06/20 04:27:54;;;;;;;16.60;6.00;;;;;;;20.34;100.00;98347.22;5115856;28;20055;-80
2022/06/20 04:30:28;;;;;;;16.13;7.03;;;;;;;20.33;100.00;98341.97;5114535;27;20055;-80
2022/06/20 04:32:59;;;;;;;11.95;6.80;;;;;;;20.43;100.00;98317.19;5115248;28;20051;-80
2022/06/20 04:35:32;;;;;;;15.30;6.53;;;;;;;20.47;100.00;98307.28;5115340;28;20463;-80
2022/06/20 04:38:03;;;;;;;19.55;6.95;;;;;;;20.31;100.00;98311.88;5114262;28;20039;-80
2022/06/20 04:40:36;;;;;;;14.23;7.10;;;;;;;20.54;100.00;98320.00;5115949;28;20051;-80
2022/06/20 04:43:11;;;;;;;11.35;5.63;;;;;;;20.60;100.00;98316.97;5113801;28;20047;-80
2022/06/20 04:45:43;;;;;;;15.93;6.25;;;;;;;20.43;100.00;98305.28;5115306;28;20414;-80
2022/06/20 04:48:13;;;;;;;19.25;7.10;;;;;;;20.44;100.00;98342.84;5115208;28;20040;-80
2022/06/20 04:50:45;;;;;;;19.17;6.45;;;;;;;20.32;100.00;98377.03;5115138;28;20054;-80
2022/06/20 04:53:18;;;;;;;18.48;6.10;;;;;;;20.19;100.00;98387.69;5114953;28;20083;-80
2022/06/20 04:55:47;;;;;;;18.40;5.68;;;;;;;20.21;100.00;98397.38;5115222;28;20403;-80
2022/06/20 04:58:19;;;;;;;18.00;6.07;;;;;;;20.36;100.00;98379.25;5114747;27;20063;-80
2022/06/20 05:00:48;;;;;;;15.25;6.47;;;;;;;20.42;100.00;98367.13;5114845;28;20055;-80
2022/06/20 05:03:18;;;;;;;16.40;5.47;;;;;;;20.36;100.00;98349.72;5114563;28;20487;-80
2022/06/20 05:05:49;;;;;;;11.82;5.57;;;;;;;20.47;100.00;98342.31;5114658;28;20285;-80
2022/06/20 05:08:21;;;;;;;12.23;6.20;;;;;;;20.44;100.00;98340.91;5114594;28;20052;-80
2022/06/20 05:10:53;;;;;;;17.33;5.60;;;;;;;20.59;100.00;98342.91;5113527;27;20055;-80
2022/06/20 05:13:25;;;;;;;17.95;6.65;;;;;;;20.58;100.00;98351.44;5114517;28;20101;-80
2022/06/20 05:15:54;;;;;;;12.75;5.30;;;;;;;20.65;100.00;98369.47;5114101;28;20051;-80
2022/06/20 05:18:34;;;;;;;16.75;6.93;;;;;;;20.66;100.00;98381.34;5114643;28;20054;-80
2022/06/20 05:21:08;;;;;;;16.15;5.90;;;;;;;20.65;100.00;98379.66;5114659;28;20047;-80
2022/06/20 05:23:39;;;;;;;16.70;5.88;;;;;;;20.50;100.00;98369.38;5113722;28;20054;-80
2022/06/20 05:26:07;;;;;;;16.55;5.50;;;;;;;20.67;100.00;98374.72;5113180;28;20123;-80
2022/06/20 05:28:38;;;;;;;14.07;5.78;;;;;;;20.57;100.00;98380.19;5114442;28;20043;-81
2022/06/20 05:31:07;;;;;;;12.07;5.00;;;;;;;20.36;100.00;98373.75;5114402;28;20501;-81
2022/06/20 05:33:41;;;;;;;20.80;5.30;;;;;;;20.36;100.00;98368.22;5114135;28;20101;-80
2022/06/20 05:36:16;;;;;;;12.18;5.28;;;;;;;20.69;100.00;98361.47;5114371;28;20051;-81
2022/06/20 05:38:46;;;;;;;11.90;5.38;;;;;;;20.65;100.00;98363.09;5114517;28;20051;-80
2022/06/20 05:41:15;;;;;;;14.65;5.22;;;;;;;20.54;100.00;98348.41;5111736;27;20051;-80
2022/06/20 05:43:44;;;;;;;15.40;5.88;;;;;;;20.84;100.00;98380.84;5114076;28;20043;-80
2022/06/20 05:46:15;;;;;;;12.70;5.38;;;;;;;20.75;100.00;98393.53;5114367;28;20047;-80
2022/06/20 05:48:48;;;;;;;10.68;5.40;;;;;;;20.61;100.00;98364.72;5114351;28;20455;-80
2022/06/20 05:51:16;;;;;;;14.85;4.72;;;;;;;20.91;100.00;98390.81;5113700;28;20051;-80
2022/06/20 05:53:47;;;;;;;13.18;4.55;;;;;;;20.78;100.00;98390.22;5113453;28;20491;-80
2022/06/20 05:56:18;;;;;;;20.55;4.75;;;;;;;20.75;100.00;98401.00;5113296;28;20047;-80
2022/06/20 05:58:47;;;;;;;12.55;4.32;;;;;;;20.85;100.00;98417.59;5113876;28;20510;-80
2022/06/20 06:01:17;;;;;;;10.98;4.38;;;;;;;20.82;100.00;98432.78;5114029;28;20059;-80
2022/06/20 06:03:47;;;;;;;;;;;;;;;20.75;100.00;98439.66;5110874;27;20035;-80
2022/06/20 06:06:19;;;;;;;12.15;3.97;;;;;;;20.69;100.00;98425.81;5113119;28;19919;-80
2022/06/20 06:08:49;;;;;;;8.88;3.97;;;;;;;20.84;98.12;98438.03;5113877;28;20059;-80
2022/06/20 06:11:22;;;;;;;17.92;4.05;;;;;;;21.03;96.44;98449.44;5114133;28;20055;-80
2022/06/20 06:13:53;;;;;;;7.50;3.60;;;;;;;21.07;94.14;98442.25;5114547;27;20051;-80
2022/06/20 06:19:18;;;;;;;10.32;4.20;;;;;;;21.22;91.22;98438.72;5113755;28;20493;-80
2022/06/20 06:21:47;;;;;;;12.57;3.75;;;;;;;21.29;92.32;98432.94;5113797;28;20055;-80
2022/06/20 06:24:18;;;;;;;20.30;4.35;;;;;;;21.36;90.52;98417.75;5114050;28;20061;-80
2022/06/20 06:26:46;;;;;;;11.55;3.67;;;;;;;21.40;89.74;98398.66;5113788;28;20059;-80
2022/06/20 06:29:18;;;;;;;10.18;4.15;;;;;;;21.72;90.63;98419.75;5113660;28;20048;-80
2022/06/20 06:31:46;;;;;;;8.30;3.65;;;;;;;21.64;88.52;98409.25;5113909;28;20051;-80
2022/06/20 06:34:20;;;;;;;12.30;3.80;;;;;;;21.54;86.76;98404.50;5113534;28;20139;-80
2022/06/20 06:36:51;;;;;;;11.27;3.83;;;;;;;21.76;88.73;98398.72;5117844;28;20097;-80
2022/06/20 06:39:24;;;;;;;12.02;3.88;;;;;;;21.86;87.33;98406.16;5117869;28;20125;-80
2022/06/20 06:41:56;;;;;;;9.73;4.15;;;;;;;21.73;86.06;98396.50;5134678;27;20442;-81
2022/06/20 06:44:31;;;;;;;10.85;3.35;;;;;;;21.88;84.50;98413.09;5138134;27;20474;-80
2022/06/20 06:46:59;;;;;;;14.90;4.55;;;;;;;21.88;84.29;98412.28;5138086;27;20051;-80
2022/06/20 06:49:33;;;;;;;14.60;4.15;;;;;;;22.12;83.46;98401.47;5138186;27;20051;-80
2022/06/20 06:52:06;;;;;;;9.02;3.67;;;;;;;22.49;80.40;98413.31;5138101;27;20054;-80
2022/06/20 06:54:48;;;;;;;13.52;3.30;;;;;;;23.08;75.28;98406.13;5138180;27;20050;-81
2022/06/20 06:57:20;;;;;;;11.10;3.83;;;;;;;23.61;74.23;98416.66;5134674;27;20051;-81
2022/06/20 06:59:52;;;;;;;12.77;4.22;;;;;;;24.19;68.95;98413.94;5117608;28;20062;-80
2022/06/20 07:02:22;;;;;;;10.02;3.45;;;;;;;24.09;69.77;98418.75;5117143;28;20058;-80
2022/06/20 07:04:55;;;;;;;17.45;3.67;;;;;;;24.22;69.17;98418.06;5117032;28;20521;-80
2022/06/20 07:07:26;;;;;;;18.20;4.28;;;;;;;24.63;68.63;98414.06;5116216;28;20051;-80
2022/06/20 07:09:55;;;;;;;12.15;3.70;;;;;;;25.00;66.77;98426.41;5115933;28;20051;-81
2022/06/20 07:12:32;;;;;;;9.73;4.43;;;;;;;25.09;63.82;98427.38;5115869;28;20044;-80
2022/06/20 07:15:06;;;;;;;17.60;4.07;;;;;;;25.30;65.34;98427.13;5115432;28;20157;-78
2022/06/20 07:17:39;;;;;;;16.13;4.05;;;;;;;25.04;63.42;98422.72;5116256;28;20043;-80
2022/06/20 07:20:07;;;;;;;10.93;4.13;;;;;;;25.42;63.22;98450.59;5115846;28;20067;-80
2022/06/20 07:22:37;;;;;;;10.73;3.55;;;;;;;25.73;62.86;98458.50;5115396;28;20047;-79
2022/06/20 07:25:04;;;;;;;12.98;4.03;;;;;;;25.21;62.22;98463.09;5115888;28;20048;-78
2022/06/20 07:27:36;;;;;;;12.75;3.45;;;;;;;25.25;63.14;98458.59;5115826;28;20495;-79
2022/06/20 07:30:08;;;;;;;12.57;3.60;;;;;;;25.60;60.59;98457.28;5115717;28;20059;-79
2022/06/20 07:32:39;;;;;;;12.50;3.25;;;;;;;26.02;60.54;98457.50;5115564;28;20490;-79
2022/06/20 07:35:11;;;;;;;10.30;3.55;;;;;;;26.32;59.16;98458.09;5115671;28;20566;-79
2022/06/20 07:37:45;;;;;;;13.07;3.75;;;;;;;26.67;59.17;98461.38;5115762;28;20047;-80
2022/06/20 07:40:20;;;;;;;10.63;3.17;;;;;;;26.62;56.95;98444.75;5115727;28;20129;-79
2022/06/20 07:42:53;;;;;;;9.38;3.10;;;;;;;26.54;57.70;98439.88;5115356;28;20047;-78
2022/06/20 07:45:28;;;;;;;10.02;3.70;;;;;;;26.83;55.23;98447.97;5115544;27;20039;-81
2022/06/20 07:47:57;;;;;;;10.10;3.35;;;;;;;26.65;54.68;98449.69;5114847;28;20105;-81
2022/06/20 07:50:27;;;;;;;10.73;3.80;;;;;;;26.93;54.82;98452.50;5115565;28;20052;-79
2022/06/20 07:52:59;;;;;;;15.23;5.03;;;;;;;26.96;55.04;98454.66;5115104;27;20050;-78
2022/06/20 07:55:31;;;;;;;14.25;3.63;;;;;;;27.15;54.92;98460.97;5118827;27;20042;-79
2022/06/20 07:58:03;;;;;;;10.15;3.53;;;;;;;27.06;56.27;98470.38;5135652;27;20046;-78
2022/06/20 08:00:37;;;;;;;22.98;4.03;;;;;;;27.29;53.97;98466.50;5135769;27;20044;-79
2022/06/20 08:03:10;;;;;;;22.60;4.13;;;;;;;26.84;56.10;98480.28;5135770;27;20097;-78
2022/06/20 08:05:41;;;;;;;14.68;4.30;;;;;;;26.82;56.35;98479.78;5135551;27;20050;-80
2022/06/20 08:08:14;;;;;;;9.63;4.15;;;;;;;27.03;57.01;98477.41;5135716;27;20560;-81
2022/06/20 08:10:46;;;;;;;15.77;4.05;;;;;;;26.83;56.08;98485.03;5135959;27;20058;-81
2022/06/20 08:13:18;;;;;;;7.80;3.10;;;;;;;26.73;56.37;98482.44;5135450;27;20055;-78
2022/06/20 08:15:53;;;;;;;10.50;3.65;;;;;;;26.73;55.70;98482.44;5134816;27;20483;-79
2022/06/20 08:18:20;;;;;;;7.63;3.55;;;;;;;26.83;55.85;98490.63;5135580;27;20126;-81
2022/06/20 08:21:05;;;;;;;11.57;3.67;;;;;;;27.14;55.53;98489.16;5135276;27;20134;-82
2022/06/20 08:23:37;;;;;;;8.75;4.00;;;;;;;26.99;55.35;98487.50;5135147;27;20051;-81
2022/06/20 08:26:09;;;;;;;10.90;3.63;;;;;;;27.24;54.37;98482.56;5135118;27;20047;-79
2022/06/20 08:28:43;;;;;;;11.02;3.83;;;;;;;26.87;55.39;98467.69;5135452;27;20051;-79
2022/06/20 08:31:17;;;;;;;12.25;4.32;;;;;;;26.92;56.23;98475.94;5135260;27;20444;-79
2022/06/20 08:33:49;;;;;;;8.98;3.38;;;;;;;27.06;56.24;98462.84;5134834;27;20054;-79
2022/06/20 08:36:22;;;;;;;10.93;4.32;;;;;;;27.14;57.08;98478.00;5134973;27;20053;-80
2022/06/20 08:38:59;;;;;;;11.35;4.57;;;;;;;27.30;56.33;98467.34;5135037;27;20055;-79
2022/06/20 08:41:48;;;;;;;9.05;3.72;;;;;;;27.67;54.50;98474.63;5133842;27;20436;-79
2022/06/20 08:44:58;;;;;;;8.73;3.60;;;;;;;27.36;52.36;98469.75;5134774;27;20078;-79
2022/06/20 08:48:03;;;;;;;8.02;3.70;;;;;;;27.45;51.25;98467.03;5129050;27;20043;-81
2022/06/20 08:51:04;;;;;;;15.45;3.83;;;;;;;27.59;50.39;98467.00;5134686;27;20058;-80
2022/06/20 08:54:07;;;;;;;10.02;3.80;;;;;;;27.33;51.55;98470.38;5134405;27;20047;-79
2022/06/20 08:56:49;;;;;;;9.52;3.38;;;;;;;27.13;51.91;98466.03;5121734;27;20047;-79
2022/06/20 08:59:28;;;;;;;11.00;3.80;;;;;;;27.61;51.45;98472.25;5113210;28;20044;-79
2022/06/20 09:02:07;;;;;;;12.65;3.65;;;;;;;27.75;48.95;98470.28;5113997;28;20051;-79
2022/06/20 09:04:54;;;;;;;13.27;3.70;;;;;;;28.04;48.65;98471.84;5113896;28;20503;-79
2022/06/20 09:07:43;;;;;;;12.60;3.58;;;;;;;27.77;50.04;98484.72;5114177;28;20051;-79
2022/06/20 09:10:33;;;;;;;11.77;3.70;;;;;;;27.92;48.80;98477.94;5113636;28;20058;-78
2022/06/20 09:13:14;;;;;;;11.02;3.63;;;;;;;28.60;48.24;98486.34;5113447;28;20491;-79
2022/06/20 09:15:49;;;;;;;15.25;3.05;;;;;;;28.36;47.79;98472.69;5113564;28;20050;-79
2022/06/20 09:18:29;;;;;;;18.42;4.50;;;;;;;28.77;48.00;98491.19;5113944;28;20108;-81
2022/06/20 09:21:05;;;;;;;7.93;4.05;;;;;;;28.70;46.27;98471.28;5113482;28;20043;-81
2022/06/20 09:23:47;;;;;;;9.43;3.40;;;;;;;28.71;48.65;98487.72;5113492;28;20071;-82
2022/06/20 09:26:22;;;;;;;10.02;3.58;;;;;;;29.33;46.29;98488.81;5113671;28;20647;-82
2022/06/20 09:29:04;;;;;;;12.85;4.00;;;;;;;29.70;44.81;98471.72;5112499;28;20047;-82
2022/06/20 09:31:54;;;;;;;9.00;3.75;;;;;;;29.68;44.92;98482.44;5113452;28;20048;-82
2022/06/20 09:34:45;;;;;;;11.30;3.70;;;;;;;29.26;44.61;98494.03;5113579;28;20055;-81
2022/06/20 09:37:32;;;;;;;9.13;4.30;;;;;;;29.10;45.54;98491.66;5113408;28;20047;-80
2022/06/20 09:40:10;;;;;;;11.90;3.72;;;;;;;29.09;46.47;98498.41;5113325;28;20087;-82
2022/06/20 09:42:43;;;;;;;15.25;4.10;;;;;;;28.87;46.50;98496.50;5112885;28;20539;-81
2022/06/20 09:45:17;;;;;;;10.68;3.70;;;;;;;29.20;45.33;98503.72;5113294;28;20417;-81
2022/06/20 09:47:55;;;;;;;16.13;3.05;;;;;;;29.13;46.04;98501.38;5113308;28;20411;-79
2022/06/20 09:50:35;;;;;;;12.02;3.90;;;;;;;28.90;47.04;98498.66;5113323;28;20483;-79
2022/06/20 09:53:19;;;;;;;13.05;3.47;;;;;;;28.62;46.83;98508.41;5111458;28;20427;-79
2022/06/20 09:55:56;;;;;;;7.53;3.03;;;;;;;28.38;47.53;98512.34;5113152;28;20043;-79
2022/06/20 09:58:30;;;;;;;12.95;3.90;;;;;;;27.86;47.87;98516.34;5113270;28;20050;-79
2022/06/20 10:01:07;;;;;;;10.63;3.40;;;;;;;27.98;48.51;98507.44;5113188;28;20510;-79
2022/06/20 10:03:41;;;;;;;12.77;5.35;;;;;;;27.94;48.98;98502.78;5112867;28;20059;-80
2022/06/20 10:06:14;;;;;;;14.20;3.50;;;;;;;28.48;49.03;98511.25;5112750;28;20052;-79
2022/06/20 10:08:54;;;;;;;13.05;4.00;;;;;;;28.53;48.02;98514.75;5111643;28;20491;-79
2022/06/20 10:11:27;;;;;;;7.28;3.30;;;;;;;28.49;47.37;98498.94;5112785;28;20048;-79
2022/06/20 10:14:01;;;;;;;20.17;3.70;;;;;;;28.66;47.40;98515.00;5112246;28;20058;-79
2022/06/20 10:16:35;;;;;;;12.13;4.22;;;;;;;28.62;47.14;98513.97;5112830;28;20050;-79
2022/06/20 10:19:11;;;;;;;16.30;4.53;;;;;;;28.96;47.47;98510.53;5112610;28;20047;-79
2022/06/20 10:21:44;;;;;;;9.23;3.85;;;;;;;29.32;46.07;98509.53;5112940;28;20043;-79
2022/06/20 10:24:28;;;;;;;7.65;2.83;;;;;;;29.32;46.11;98506.72;5112596;28;20050;-81
2022/06/20 10:27:31;;;;;;;14.55;3.95;;;;;;;29.51;45.79;98502.81;5112773;28;20075;-81
2022/06/20 10:30:11;;;;;;;14.23;3.97;;;;;;;29.48;44.17;98507.13;5102462;28;20047;-79
2022/06/20 10:32:52;;;;;;;;;;;;;;;29.48;43.94;98504.31;5112946;28;20051;-79
2022/06/20 10:35:25;;;;;;;10.82;3.75;;;;;;;29.31;44.21;98510.69;5109946;28;19949;-79
2022/06/20 10:38:04;;;;;;;8.40;3.40;;;;;;;29.44;45.36;98509.72;5112637;28;20104;-79
2022/06/20 10:40:34;;;;;;;7.38;3.80;;;;;;;29.37;44.91;98514.16;5111523;28;20069;-79
2022/06/20 10:43:09;;;;;;;10.93;3.33;;;;;;;28.93;43.83;98506.41;5112487;28;20415;-78
2022/06/20 10:45:45;;;;;;;16.75;3.95;;;;;;;28.99;45.04;98512.69;5112739;28;20090;-79
2022/06/20 10:48:52;;;;;;;7.28;2.95;;;;;;;28.53;45.45;98530.66;5112569;28;20043;-79
2022/06/20 10:51:31;;;;;;;12.85;5.15;;;;;;;28.12;46.34;98532.53;5112538;28;20055;-79
2022/06/20 10:54:09;;;;;;;11.05;3.33;;;;;;;27.97;47.26;98541.28;5112319;28;20051;-79
2022/06/20 10:56:55;;;;;;;8.70;2.90;;;;;;;27.99;47.34;98528.66;5123952;28;20506;-78
2022/06/20 10:59:40;;;;;;;8.85;3.20;;;;;;;28.13;47.81;98508.22;5133033;28;20047;-79
2022/06/20 11:02:22;;;;;;;8.95;3.58;;;;;;;28.42;47.96;98542.13;5132928;28;20510;-79
2022/06/20 11:05:01;;;;;;;9.88;3.58;;;;;;;28.76;47.45;98534.31;5133071;28;20062;-79
2022/06/20 11:07:34;;;;;;;12.18;3.58;;;;;;;29.31;47.89;98524.66;5133094;28;20085;-79
2022/06/20 11:10:08;;;;;;;9.90;3.63;;;;;;;29.02;46.33;98525.22;5132840;27;20043;-78
2022/06/20 11:12:44;;;;;;;13.20;3.70;;;;;;;29.54;46.26;98541.34;5132748;28;20051;-78
2022/06/20 11:15:23;;;;;;;7.78;3.55;;;;;;;29.73;43.70;98538.28;5132565;28;20043;-80
2022/06/20 11:17:57;;;;;;;9.35;3.30;;;;;;;29.16;43.41;98545.50;5132852;28;20051;-79
2022/06/20 11:20:29;;;;;;;11.07;3.17;;;;;;;28.56;44.78;98561.63;5132822;28;20051;-80
2022/06/20 11:23:06;;;;;;;11.30;2.60;;;;;;;27.82;46.73;98562.81;5134811;27;20055;-79
2022/06/20 11:25:47;;;;;;;9.25;3.00;;;;;;;28.01;46.71;98557.09;5136536;27;20043;-79
2022/06/20 11:28:41;;;;;;;7.78;3.00;;;;;;;28.04;47.71;98572.41;5136448;27;20103;-79
2022/06/20 11:31:15;;;;;;;8.75;3.78;;;;;;;27.37;48.89;98566.28;5136261;27;20543;-79
2022/06/20 11:34:04;;;;;;;9.52;3.53;;;;;;;26.57;51.52;98573.03;5136184;27;20080;-81
2022/06/20 11:36:45;;;;;;;10.75;3.35;;;;;;;26.52;52.95;98593.47;5136398;27;20043;-79
2022/06/20 11:39:28;;;;;;;12.15;4.05;;;;;;;26.31;55.73;98581.81;5136053;27;20082;-81
2022/06/20 11:41:58;;;;;;;10.10;3.72;;;;;;;26.41;54.21;98581.66;5136285;27;20047;-78
2022/06/20 11:44:52;;;;;;;10.48;3.58;;;;;;;26.04;55.73;98611.19;5136029;27;20050;-81
2022/06/20 11:47:42;;;;;;;9.70;3.78;;;;;;;25.84;56.10;98615.06;5136088;27;20047;-80
2022/06/20 11:50:25;;;;;;;8.82;3.00;;;;;;;25.71;56.48;98622.16;5135923;27;20043;-84
2022/06/20 11:52:58;;;;;;;12.77;2.95;;;;;;;25.84;54.57;98623.41;5136284;27;20058;-81
2022/06/20 11:55:32;;;;;;;10.30;3.13;;;;;;;25.91;53.96;98621.09;5135241;27;20096;-81
2022/06/20 11:58:06;;;;;;;8.20;3.20;;;;;;;26.01;54.16;98625.72;5115410;28;20434;-81
2022/06/20 12:00:37;;;;;;;9.38;3.08;;;;;;;26.12;54.21;98634.75;5115314;28;20056;-80
2022/06/20 12:03:16;;;;;;;10.02;2.70;;;;;;;25.98;53.66;98645.78;5114858;27;20084;-79
2022/06/20 12:05:48;;;;;;;6.90;2.67;;;;;;;25.72;54.28;98642.50;5115105;28;20055;-79
2022/06/20 12:08:28;;;;;;;12.55;2.42;;;;;;;25.40;55.02;98641.22;5115051;28;20056;-82